sensor_id;sensor_type;location;lat;lon;timestamp;pressure;altitude;pressure_sealevel;temperature;humidity
67697;BME280;54486;51.442;6.778;2023-04-05T00:02:22;102239.66;;;3.42;72.25
67697;BME280;54486;51.442;6.778;2023-04-05T00:04:51;102240.19;;;3.35;73.56
67697;BME280;54486;51.442;6.778;2023-04-05T00:07:23;102239.25;;;3.33;72.04
67697;BME280;54486;51.442;6.778;2023-04-05T00:09:52;102240.25;;;3.37;70.67
67697;BME280;54486;51.442;6.778;2023-04-05T00:12:19;102239.38;;;3.36;69.69
67697;BME280;54486;51.442;6.778;2023-04-05T00:14:47;102239.38;;;3.36;70.61
67697;BME280;54486;51.442;6.778;2023-04-05T00:17:15;102237.47;;;3.32;70.81
67697;BME280;54486;51.442;6.778;2023-04-05T00:19:44;102238.97;;;3.27;72.91
67697;BME280;54486;51.442;6.778;2023-04-05T00:22:11;102240.59;;;3.25;72.17
67697;BME280;54486;51.442;6.778;2023-04-05T00:24:38;102243.09;;;3.24;71.81
67697;BME280;54486;51.442;6.778;2023-04-05T00:27:09;102238.81;;;3.24;72.08
67697;BME280;54486;51.442;6.778;2023-04-05T00:29:36;102239.63;;;3.23;71.70
67697;BME280;54486;51.442;6.778;2023-04-05T00:32:04;102237.03;;;3.23;71.43
67697;BME280;54486;51.442;6.778;2023-04-05T00:34:31;102230.06;;;3.20;72.70
67697;BME280;54486;51.442;6.778;2023-04-05T00:36:59;102228.38;;;3.21;72.28
67697;BME280;54486;51.442;6.778;2023-04-05T00:39:27;102216.28;;;3.20;72.13
67697;BME280;54486;51.442;6.778;2023-04-05T00:41:54;102222.19;;;3.17;73.59
67697;BME280;54486;51.442;6.778;2023-04-05T00:44:22;102226.47;;;3.17;72.33
67697;BME280;54486;51.442;6.778;2023-04-05T00:46:52;102229.84;;;3.16;71.88
67697;BME280;54486;51.442;6.778;2023-04-05T00:49:19;102227.97;;;3.12;72.79
67697;BME280;54486;51.442;6.778;2023-04-05T00:51:48;102226.03;;;3.08;73.59
67697;BME280;54486;51.442;6.778;2023-04-05T00:54:15;102218.16;;;3.05;73.20
67697;BME280;54486;51.442;6.778;2023-04-05T00:56:42;102218.03;;;3.02;74.24
67697;BME280;54486;51.442;6.778;2023-04-05T00:59:10;102222.25;;;3.00;74.00
67697;BME280;54486;51.442;6.778;2023-04-05T01:01:39;102230.63;;;2.96;73.69
67697;BME280;54486;51.442;6.778;2023-04-05T01:04:11;102219.22;;;2.91;74.76
67697;BME280;54486;51.442;6.778;2023-04-05T01:09:47;102215.19;;;2.78;74.92
67697;BME280;54486;51.442;6.778;2023-04-05T01:12:22;102205.47;;;2.73;74.96
67697;BME280;54486;51.442;6.778;2023-04-05T01:14:53;102211.38;;;2.70;75.41
67697;BME280;54486;51.442;6.778;2023-04-05T01:17:22;102214.59;;;2.66;74.52
67697;BME280;54486;51.442;6.778;2023-04-05T01:19:53;102211.38;;;2.70;73.54
67697;BME280;54486;51.442;6.778;2023-04-05T01:28:55;102205.19;;;2.66;75.60
67697;BME280;54486;51.442;6.778;2023-04-05T01:31:45;102205.94;;;2.64;76.25
67697;BME280;54486;51.442;6.778;2023-04-05T01:34:22;102207.53;;;2.62;76.50
67697;BME280;54486;51.442;6.778;2023-04-05T01:36:56;102201.53;;;2.61;76.50
67697;BME280;54486;51.442;6.778;2023-04-05T01:39:27;102203.13;;;2.59;76.44
67697;BME280;54486;51.442;6.778;2023-04-05T01:42:00;102196.22;;;2.58;75.98
67697;BME280;54486;51.442;6.778;2023-04-05T01:44:27;102194.44;;;2.57;75.65
67697;BME280;54486;51.442;6.778;2023-04-05T01:46:55;102194.31;;;2.54;75.96
67697;BME280;54486;51.442;6.778;2023-04-05T01:49:23;102194.00;;;2.48;76.33
67697;BME280;54486;51.442;6.778;2023-04-05T01:51:50;102193.03;;;2.46;77.09
67697;BME280;54486;51.442;6.778;2023-04-05T01:54:17;102191.34;;;2.47;77.66
67697;BME280;54486;51.442;6.778;2023-04-05T01:56:44;102184.41;;;2.46;77.73
67697;BME280;54486;51.442;6.778;2023-04-05T01:59:12;102185.25;;;2.45;77.91
67697;BME280;54486;51.442;6.778;2023-04-05T02:01:39;102174.88;;;2.43;79.15
67697;BME280;54486;51.442;6.778;2023-04-05T02:04:07;102176.50;;;2.41;77.52
67697;BME280;54486;51.442;6.778;2023-04-05T02:06:34;102172.97;;;2.39;77.94
67697;BME280;54486;51.442;6.778;2023-04-05T02:09:01;102170.31;;;2.38;77.80
67697;BME280;54486;51.442;6.778;2023-04-05T02:11:29;102175.47;;;2.38;78.67
67697;BME280;54486;51.442;6.778;2023-04-05T02:13:56;102176.22;;;2.35;78.14
67697;BME280;54486;51.442;6.778;2023-04-05T02:16:23;102177.94;;;2.36;78.19
67697;BME280;54486;51.442;6.778;2023-04-05T02:18:54;102179.59;;;2.34;78.46
67697;BME280;54486;51.442;6.778;2023-04-05T02:21:24;102179.44;;;2.31;78.45
67697;BME280;54486;51.442;6.778;2023-04-05T02:23:57;102180.38;;;2.33;78.75
67697;BME280;54486;51.442;6.778;2023-04-05T02:26:24;102174.13;;;2.28;78.98
67697;BME280;54486;51.442;6.778;2023-04-05T02:28:51;102172.34;;;2.27;79.18
67697;BME280;54486;51.442;6.778;2023-04-05T02:31:18;102172.22;;;2.24;79.51
67697;BME280;54486;51.442;6.778;2023-04-05T02:33:45;102173.91;;;2.24;78.78
67697;BME280;54486;51.442;6.778;2023-04-05T02:36:13;102173.69;;;2.19;79.45
67697;BME280;54486;51.442;6.778;2023-04-05T02:38:40;102174.50;;;2.18;79.23
67697;BME280;54486;51.442;6.778;2023-04-05T02:41:08;102168.41;;;2.16;79.16
67697;BME280;54486;51.442;6.778;2023-04-05T02:43:38;102175.28;;;2.17;79.40
67697;BME280;54486;51.442;6.778;2023-04-05T02:46:07;102166.63;;;2.15;79.43
67697;BME280;54486;51.442;6.778;2023-04-05T02:48:34;102175.16;;;2.14;78.89
67697;BME280;54486;51.442;6.778;2023-04-05T02:51:01;102168.09;;;2.10;79.60
67697;BME280;54486;51.442;6.778;2023-04-05T02:53:28;102172.38;;;2.09;79.38
67697;BME280;54486;51.442;6.778;2023-04-05T02:55:56;102171.31;;;2.06;79.95
67697;BME280;54486;51.442;6.778;2023-04-05T02:58:24;102164.41;;;2.05;80.63
67697;BME280;54486;51.442;6.778;2023-04-05T03:00:51;102171.19;;;2.03;80.56
67697;BME280;54486;51.442;6.778;2023-04-05T03:03:21;102169.41;;;2.02;80.55
67697;BME280;54486;51.442;6.778;2023-04-05T03:05:57;102168.44;;;2.00;81.03
67697;BME280;54486;51.442;6.778;2023-04-05T03:08:26;102175.03;;;1.95;82.24
67697;BME280;54486;51.442;6.778;2023-04-05T03:10:57;102168.81;;;1.90;82.25
67697;BME280;54486;51.442;6.778;2023-04-05T03:13:24;102163.50;;;1.87;82.69
67697;BME280;54486;51.442;6.778;2023-04-05T03:15:54;102159.09;;;1.84;82.30
67697;BME280;54486;51.442;6.778;2023-04-05T03:18:21;102158.06;;;1.81;83.48
67697;BME280;54486;51.442;6.778;2023-04-05T03:20:52;102152.75;;;1.78;82.68
67697;BME280;54486;51.442;6.778;2023-04-05T03:23:27;102163.06;;;1.78;82.24
67697;BME280;54486;51.442;6.778;2023-04-05T03:28:24;102157.75;;;1.75;83.21
67697;BME280;54486;51.442;6.778;2023-04-05T03:30:51;102162.75;;;1.72;83.08
67697;BME280;54486;51.442;6.778;2023-04-05T03:33:19;102150.38;;;1.65;83.80
67697;BME280;54486;51.442;6.778;2023-04-05T03:35:47;102159.63;;;1.61;83.98
67697;BME280;54486;51.442;6.778;2023-04-05T03:38:14;102149.44;;;1.63;82.96
67697;BME280;54486;51.442;6.778;2023-04-05T03:40:42;102158.72;;;1.60;83.48
67697;BME280;54486;51.442;6.778;2023-04-05T03:43:11;102152.69;;;1.60;83.25
67697;BME280;54486;51.442;6.778;2023-04-05T03:45:38;102151.84;;;1.59;82.52
67697;BME280;54486;51.442;6.778;2023-04-05T03:48:06;102149.19;;;1.58;83.33
67697;BME280;54486;51.442;6.778;2023-04-05T03:50:34;102147.50;;;1.58;83.13
67697;BME280;54486;51.442;6.778;2023-04-05T03:53:01;102147.50;;;1.58;83.20
67697;BME280;54486;51.442;6.778;2023-04-05T03:55:28;102144.91;;;1.58;83.27
67697;BME280;54486;51.442;6.778;2023-04-05T03:57:56;102149.19;;;1.58;83.64
67697;BME280;54486;51.442;6.778;2023-04-05T04:00:25;102145.66;;;1.56;84.42
67697;BME280;54486;51.442;6.778;2023-04-05T04:02:52;102143.94;;;1.56;84.04
67697;BME280;54486;51.442;6.778;2023-04-05T04:05:19;102148.28;;;1.57;83.58
67697;BME280;54486;51.442;6.778;2023-04-05T04:07:49;102146.50;;;1.56;83.79
67697;BME280;54486;51.442;6.778;2023-04-05T04:10:17;102143.00;;;1.54;84.36
67697;BME280;54486;51.442;6.778;2023-04-05T04:12:44;102142.84;;;1.51;84.19
67697;BME280;54486;51.442;6.778;2023-04-05T04:15:11;102149.66;;;1.51;83.53
67697;BME280;54486;51.442;6.778;2023-04-05T04:17:39;102151.34;;;1.50;83.32
67697;BME280;54486;51.442;6.778;2023-04-05T04:20:10;102144.47;;;1.49;83.12
67697;BME280;54486;51.442;6.778;2023-04-05T04:22:37;102149.59;;;1.49;83.02
67697;BME280;54486;51.442;6.778;2023-04-05T04:25:08;102145.25;;;1.48;82.94
67697;BME280;54486;51.442;6.778;2023-04-05T04:27:42;102143.41;;;1.46;84.48
67697;BME280;54486;51.442;6.778;2023-04-05T04:30:15;102149.28;;;1.43;84.21
67697;BME280;54486;51.442;6.778;2023-04-05T04:32:42;102142.38;;;1.42;83.63
67697;BME280;54486;51.442;6.778;2023-04-05T04:35:24;102146.56;;;1.40;83.59
67697;BME280;54486;51.442;6.778;2023-04-05T04:37:54;102148.88;;;1.36;84.79
67697;BME280;54486;51.442;6.778;2023-04-05T04:40:34;102147.03;;;1.33;84.65
67697;BME280;54486;51.442;6.778;2023-04-05T04:43:05;102148.00;;;1.35;85.02
67697;BME280;54486;51.442;6.778;2023-04-05T04:45:32;102151.53;;;1.37;84.46
67697;BME280;54486;51.442;6.778;2023-04-05T04:48:00;102153.94;;;1.34;84.95
67697;BME280;54486;51.442;6.778;2023-04-05T04:50:31;102152.19;;;1.33;85.01
67697;BME280;54486;51.442;6.778;2023-04-05T04:53:01;102154.75;;;1.33;84.96
67697;BME280;54486;51.442;6.778;2023-04-05T04:55:28;102158.28;;;1.35;85.24
67697;BME280;54486;51.442;6.778;2023-04-05T04:57:56;102157.97;;;1.29;84.79
67697;BME280;54486;51.442;6.778;2023-04-05T05:00:24;102150.25;;;1.29;85.17
67697;BME280;54486;51.442;6.778;2023-04-05T05:02:52;102155.25;;;1.26;85.85
67697;BME280;54486;51.442;6.778;2023-04-05T05:05:19;102150.09;;;1.26;86.05
67697;BME280;54486;51.442;6.778;2023-04-05T05:07:49;102155.25;;;1.26;85.65
67697;BME280;54486;51.442;6.778;2023-04-05T05:10:19;102151.88;;;1.27;86.10
67697;BME280;54486;51.442;6.778;2023-04-05T05:12:46;102149.38;;;1.29;85.84
67697;BME280;54486;51.442;6.778;2023-04-05T05:15:15;102145.28;;;1.32;86.24
67697;BME280;54486;51.442;6.778;2023-04-05T05:17:42;102153.16;;;1.35;85.30
67697;BME280;54486;51.442;6.778;2023-04-05T05:20:10;102141.22;;;1.37;85.22
67697;BME280;54486;51.442;6.778;2023-04-05T05:22:39;102144.78;;;1.39;85.29
67697;BME280;54486;51.442;6.778;2023-04-05T05:25:06;102140.44;;;1.38;85.07
67697;BME280;54486;51.442;6.778;2023-04-05T05:27:34;102138.66;;;1.37;85.99
67697;BME280;54486;51.442;6.778;2023-04-05T05:30:01;102141.06;;;1.34;85.50
67697;BME280;54486;51.442;6.778;2023-04-05T05:32:29;102139.56;;;1.38;86.35
67697;BME280;54486;51.442;6.778;2023-04-05T05:34:56;102138.84;;;1.40;85.60
67697;BME280;54486;51.442;6.778;2023-04-05T05:37:30;102146.88;;;1.46;85.59
67697;BME280;54486;51.442;6.778;2023-04-05T05:39:58;102137.53;;;1.48;85.57
67697;BME280;54486;51.442;6.778;2023-04-05T05:42:26;102142.84;;;1.51;85.11
67697;BME280;54486;51.442;6.778;2023-04-05T05:44:53;102143.00;;;1.54;84.85
67697;BME280;54486;51.442;6.778;2023-04-05T05:47:20;102133.59;;;1.55;85.05
67697;BME280;54486;51.442;6.778;2023-04-05T05:49:48;102141.22;;;1.53;86.20
67697;BME280;54486;51.442;6.778;2023-04-05T05:52:15;102143.16;;;1.57;86.08
67697;BME280;54486;51.442;6.778;2023-04-05T05:54:42;102146.84;;;1.63;86.33
67697;BME280;54486;51.442;6.778;2023-04-05T05:57:10;102150.53;;;1.68;85.35
67697;BME280;54486;51.442;6.778;2023-04-05T05:59:37;102154.19;;;1.73;86.26
67697;BME280;54486;51.442;6.778;2023-04-05T06:02:03;102151.13;;;1.80;85.79
67697;BME280;54486;51.442;6.778;2023-04-05T06:04:31;102154.09;;;1.87;85.74
67697;BME280;54486;51.442;6.778;2023-04-05T06:06:59;102150.13;;;1.94;84.66
67697;BME280;54486;51.442;6.778;2023-04-05T06:09:27;102143.50;;;1.99;84.33
67697;BME280;54486;51.442;6.778;2023-04-05T06:11:55;102148.66;;;1.99;84.43
67697;BME280;54486;51.442;6.778;2023-04-05T06:14:25;102147.06;;;2.01;83.46
67697;BME280;54486;51.442;6.778;2023-04-05T06:16:54;102148.00;;;2.03;83.56
67697;BME280;54486;51.442;6.778;2023-04-05T06:19:24;102143.97;;;2.08;84.52
67697;BME280;54486;51.442;6.778;2023-04-05T06:21:51;102147.66;;;2.13;83.77
67697;BME280;54486;51.442;6.778;2023-04-05T06:24:19;102154.69;;;2.17;83.76
67697;BME280;54486;51.442;6.778;2023-04-05T06:26:48;102153.09;;;2.19;83.21
67697;BME280;54486;51.442;6.778;2023-04-05T06:29:15;102152.44;;;2.23;83.36
67697;BME280;54486;51.442;6.778;2023-04-05T06:31:42;102141.47;;;2.27;83.41
67697;BME280;54486;51.442;6.778;2023-04-05T06:34:14;102140.16;;;2.35;82.86
67697;BME280;54486;51.442;6.778;2023-04-05T06:36:41;102144.66;;;2.39;82.83
67697;BME280;54486;51.442;6.778;2023-04-05T06:39:11;102143.22;;;2.46;82.88
67697;BME280;54486;51.442;6.778;2023-04-05T06:41:42;102144.38;;;2.52;82.90
67697;BME280;54486;51.442;6.778;2023-04-05T06:44:09;102148.22;;;2.60;82.35
67697;BME280;54486;51.442;6.778;2023-04-05T06:46:35;102150.41;;;2.71;82.40
67697;BME280;54486;51.442;6.778;2023-04-05T06:49:03;102147.28;;;2.78;81.67
67697;BME280;54486;51.442;6.778;2023-04-05T06:51:30;102145.94;;;2.86;81.54
67697;BME280;54486;51.442;6.778;2023-04-05T06:53:57;102134.28;;;2.94;80.93
67697;BME280;54486;51.442;6.778;2023-04-05T06:56:24;102139.75;;;3.00;80.23
67697;BME280;54486;51.442;6.778;2023-04-05T06:58:52;102141.88;;;3.10;79.77
67697;BME280;54486;51.442;6.778;2023-04-05T07:01:19;102143.94;;;3.17;79.43
67697;BME280;54486;51.442;6.778;2023-04-05T07:03:46;102138.22;;;3.24;79.09
67697;BME280;54486;51.442;6.778;2023-04-05T07:06:14;102137.69;;;3.31;78.07
67697;BME280;54486;51.442;6.778;2023-04-05T07:08:42;102138.09;;;3.40;77.22
67697;BME280;54486;51.442;6.778;2023-04-05T07:11:09;102136.69;;;3.48;76.46
67697;BME280;54486;51.442;6.778;2023-04-05T07:13:36;102132.91;;;3.59;76.49
67697;BME280;54486;51.442;6.778;2023-04-05T07:16:03;102132.34;;;3.66;75.74
67697;BME280;54486;51.442;6.778;2023-04-05T07:18:31;102130.06;;;3.74;74.19
67697;BME280;54486;51.442;6.778;2023-04-05T07:21:06;102124.44;;;3.83;73.71
67697;BME280;54486;51.442;6.778;2023-04-05T07:23:37;102132.66;;;3.95;73.39
67697;BME280;54486;51.442;6.778;2023-04-05T07:26:04;102128.94;;;4.09;71.27
67697;BME280;54486;51.442;6.778;2023-04-05T07:28:32;102124.28;;;4.21;69.05
67697;BME280;54486;51.442;6.778;2023-04-05T07:31:02;102121.22;;;4.31;64.26
67697;BME280;54486;51.442;6.778;2023-04-05T07:33:29;102123.34;;;4.41;64.11
67697;BME280;54486;51.442;6.778;2023-04-05T07:35:57;102123.69;;;4.50;64.47
67697;BME280;54486;51.442;6.778;2023-04-05T07:38:25;102122.31;;;4.58;64.08
67697;BME280;54486;51.442;6.778;2023-04-05T07:40:53;102113.34;;;4.72;60.93
67697;BME280;54486;51.442;6.778;2023-04-05T07:43:20;102128.28;;;4.79;59.88
67697;BME280;54486;51.442;6.778;2023-04-05T07:45:47;102121.59;;;4.85;60.27
67697;BME280;54486;51.442;6.778;2023-04-05T07:48:15;102121.69;;;4.88;59.73
67697;BME280;54486;51.442;6.778;2023-04-05T07:50:43;102120.16;;;4.93;60.67
67697;BME280;54486;51.442;6.778;2023-04-05T07:53:13;102124.13;;;5.07;59.48
67697;BME280;54486;51.442;6.778;2023-04-05T07:55:42;102125.34;;;5.16;56.70
67697;BME280;54486;51.442;6.778;2023-04-05T07:58:09;102127.31;;;5.23;56.55
67697;BME280;54486;51.442;6.778;2023-04-05T08:00:39;102125.00;;;5.31;56.67
67697;BME280;54486;51.442;6.778;2023-04-05T08:03:07;102128.63;;;5.36;56.48
67697;BME280;54486;51.442;6.778;2023-04-05T08:05:34;102125.22;;;5.37;57.75
67697;BME280;54486;51.442;6.778;2023-04-05T08:08:02;102126.09;;;5.38;57.93
67697;BME280;54486;51.442;6.778;2023-04-05T08:10:29;102134.16;;;5.45;56.75
67697;BME280;54486;51.442;6.778;2023-04-05T08:12:56;102121.53;;;5.54;58.19
67697;BME280;54486;51.442;6.778;2023-04-05T08:15:23;102125.84;;;5.55;57.91
67697;BME280;54486;51.442;6.778;2023-04-05T08:17:50;102128.56;;;5.58;57.80
67697;BME280;54486;51.442;6.778;2023-04-05T08:20:18;102123.50;;;5.61;56.73
67697;BME280;54486;51.442;6.778;2023-04-05T08:22:45;102126.69;;;5.79;55.87
67697;BME280;54486;51.442;6.778;2023-04-05T08:25:12;102127.03;;;5.89;55.83
67697;BME280;54486;51.442;6.778;2023-04-05T08:27:39;102124.16;;;5.81;56.72
67697;BME280;54486;51.442;6.778;2023-04-05T08:30:07;102126.84;;;5.84;55.82
67697;BME280;54486;51.442;6.778;2023-04-05T08:32:34;102127.13;;;5.92;56.70
67697;BME280;54486;51.442;6.778;2023-04-05T08:35:04;102122.06;;;5.95;57.21
67697;BME280;54486;51.442;6.778;2023-04-05T08:37:35;102117.06;;;6.01;57.16
67697;BME280;54486;51.442;6.778;2023-04-05T08:40:03;102122.53;;;6.10;55.68
67697;BME280;54486;51.442;6.778;2023-04-05T08:42:35;102124.50;;;6.17;56.66
67697;BME280;54486;51.442;6.778;2023-04-05T08:45:08;102116.91;;;6.21;56.43
67697;BME280;54486;51.442;6.778;2023-04-05T08:47:39;102116.28;;;6.30;54.70
67697;BME280;54486;51.442;6.778;2023-04-05T08:50:09;102120.03;;;6.38;54.68
67697;BME280;54486;51.442;6.778;2023-04-05T08:52:37;102115.78;;;6.42;54.64
67697;BME280;54486;51.442;6.778;2023-04-05T08:55:05;102120.31;;;6.47;54.42
67697;BME280;54486;51.442;6.778;2023-04-05T08:57:36;102109.16;;;6.51;53.47
67697;BME280;54486;51.442;6.778;2023-04-05T09:00:05;102117.16;;;6.57;54.32
67697;BME280;54486;51.442;6.778;2023-04-05T09:02:36;102107.94;;;6.67;53.68
67697;BME280;54486;51.442;6.778;2023-04-05T09:05:07;102115.94;;;6.74;54.30
67697;BME280;54486;51.442;6.778;2023-04-05T09:07:35;102117.78;;;6.78;54.65
67697;BME280;54486;51.442;6.778;2023-04-05T09:10:05;102105.78;;;6.82;54.35
67697;BME280;54486;51.442;6.778;2023-04-05T09:12:34;102100.88;;;6.92;53.77
67697;BME280;54486;51.442;6.778;2023-04-05T09:15:02;102095.59;;;6.89;52.47
67697;BME280;54486;51.442;6.778;2023-04-05T09:17:29;102095.59;;;6.89;53.08
67697;BME280;54486;51.442;6.778;2023-04-05T09:19:58;102097.38;;;6.90;53.32
67697;BME280;54486;51.442;6.778;2023-04-05T09:22:26;102093.97;;;6.91;52.95
67697;BME280;54486;51.442;6.778;2023-04-05T09:24:54;102087.09;;;6.93;52.43
67697;BME280;54486;51.442;6.778;2023-04-05T09:27:23;102095.78;;;6.96;51.78
67697;BME280;54486;51.442;6.778;2023-04-05T09:29:50;102089.03;;;7.01;51.80
67697;BME280;54486;51.442;6.778;2023-04-05T09:32:17;102084.81;;;7.04;52.43
67697;BME280;54486;51.442;6.778;2023-04-05T09:34:46;102090.41;;;7.19;48.99
67697;BME280;54486;51.442;6.778;2023-04-05T09:37:18;102101.91;;;7.29;48.66
67697;BME280;54486;51.442;6.778;2023-04-05T09:39:47;102094.50;;;7.42;48.64
67697;BME280;54486;51.442;6.778;2023-04-05T09:42:17;102093.63;;;7.42;49.26
67697;BME280;54486;51.442;6.778;2023-04-05T09:45:00;102087.94;;;7.57;49.53
67697;BME280;54486;51.442;6.778;2023-04-05T09:47:35;102096.25;;;7.76;48.40
67697;BME280;54486;51.442;6.778;2023-04-05T09:50:16;102097.84;;;7.71;48.67
67697;BME280;54486;51.442;6.778;2023-04-05T09:52:44;102091.78;;;7.71;47.76
67697;BME280;54486;51.442;6.778;2023-04-05T09:55:12;102086.59;;;7.71;45.25
67697;BME280;54486;51.442;6.778;2023-04-05T09:57:40;102090.50;;;7.88;46.07
67697;BME280;54486;51.442;6.778;2023-04-05T10:00:20;102093.19;;;7.92;44.57
67697;BME280;54486;51.442;6.778;2023-04-05T10:02:52;102088.13;;;7.98;44.70
67697;BME280;54486;51.442;6.778;2023-04-05T10:05:23;102088.06;;;7.95;46.07
67697;BME280;54486;51.442;6.778;2023-04-05T10:07:50;102087.25;;;7.98;46.54
67697;BME280;54486;51.442;6.778;2023-04-05T10:10:18;102084.84;;;8.06;44.14
67697;BME280;54486;51.442;6.778;2023-04-05T10:12:48;102089.91;;;7.99;45.46
67697;BME280;54486;51.442;6.778;2023-04-05T10:15:15;102082.94;;;7.98;44.13
67697;BME280;54486;51.442;6.778;2023-04-05T10:17:52;102079.66;;;8.06;45.88
67697;BME280;54486;51.442;6.778;2023-04-05T10:20:23;102070.94;;;8.04;45.21
67697;BME280;54486;51.442;6.778;2023-04-05T10:23:08;102067.41;;;8.02;46.46
67697;BME280;54486;51.442;6.778;2023-04-05T10:28:42;102062.41;;;8.11;44.68
67697;BME280;54486;51.442;6.778;2023-04-05T10:34:07;102056.66;;;8.22;44.63
67697;BME280;54486;51.442;6.778;2023-04-05T10:36:41;102052.50;;;8.29;45.21
67697;BME280;54486;51.442;6.778;2023-04-05T10:39:40;102057.97;;;8.41;42.36
67697;BME280;54486;51.442;6.778;2023-04-05T10:42:21;102061.59;;;8.49;42.17
67697;BME280;54486;51.442;6.778;2023-04-05T10:44:58;102057.16;;;8.43;42.24
67697;BME280;54486;51.442;6.778;2023-04-05T10:47:30;102049.28;;;8.40;41.54
67697;BME280;54486;51.442;6.778;2023-04-05T10:50:00;102044.06;;;8.39;42.60
67697;BME280;54486;51.442;6.778;2023-04-05T10:52:29;102048.69;;;8.54;41.90
67697;BME280;54486;51.442;6.778;2023-04-05T10:54:59;102036.47;;;8.49;41.52
67697;BME280;54486;51.442;6.778;2023-04-05T10:57:30;102032.09;;;8.47;41.25
67697;BME280;54486;51.442;6.778;2023-04-05T10:59:58;102035.56;;;8.49;40.52
67697;BME280;54486;51.442;6.778;2023-04-05T11:02:28;102026.19;;;8.56;41.75
67697;BME280;54486;51.442;6.778;2023-04-05T11:04:55;102025.47;;;8.63;39.73
67697;BME280;54486;51.442;6.778;2023-04-05T11:07:23;102026.41;;;8.66;40.20
67697;BME280;54486;51.442;6.778;2023-04-05T11:10:04;102020.66;;;8.82;40.35
67697;BME280;54486;51.442;6.778;2023-04-05T11:18:20;102022.94;;;9.11;40.19
67697;BME280;54486;51.442;6.778;2023-04-05T11:20:52;102021.38;;;9.19;38.58
67697;BME280;54486;51.442;6.778;2023-04-05T11:23:23;102020.38;;;9.12;39.13
67697;BME280;54486;51.442;6.778;2023-04-05T11:25:53;102010.81;;;9.13;40.92
67697;BME280;54486;51.442;6.778;2023-04-05T11:30:55;102016.22;;;9.22;41.00
67697;BME280;54486;51.442;6.778;2023-04-05T11:41:46;102004.41;;;9.42;41.19
67697;BME280;54486;51.442;6.778;2023-04-05T11:44:14;102009.66;;;9.45;38.73
67697;BME280;54486;51.442;6.778;2023-04-05T11:46:42;101996.63;;;9.45;39.45
67697;BME280;54486;51.442;6.778;2023-04-05T11:49:09;102002.78;;;9.47;39.94
67697;BME280;54486;51.442;6.778;2023-04-05T11:51:36;101994.25;;;9.57;41.46
67697;BME280;54486;51.442;6.778;2023-04-05T11:54:08;101987.47;;;9.68;39.28
67697;BME280;54486;51.442;6.778;2023-04-05T11:56:36;102002.41;;;9.78;39.51
67697;BME280;54486;51.442;6.778;2023-04-05T11:59:03;101994.59;;;9.78;39.37
67697;BME280;54486;51.442;6.778;2023-04-05T12:01:31;101994.34;;;9.63;39.00
67697;BME280;54486;51.442;6.778;2023-04-05T12:03:58;101973.28;;;9.51;40.37
67697;BME280;54486;51.442;6.778;2023-04-05T12:06:27;101977.78;;;9.61;39.87
67697;BME280;54486;51.442;6.778;2023-04-05T12:08:54;101973.47;;;9.60;39.25
67697;BME280;54486;51.442;6.778;2023-04-05T12:11:26;101975.28;;;9.67;39.77
67697;BME280;54486;51.442;6.778;2023-04-05T12:13:58;101971.00;;;9.69;39.59
67697;BME280;54486;51.442;6.778;2023-04-05T12:16:26;101960.63;;;9.74;39.88
67697;BME280;54486;51.442;6.778;2023-04-05T12:18:57;101967.03;;;9.95;38.42
67697;BME280;54486;51.442;6.778;2023-04-05T12:21:25;101962.59;;;9.88;38.21
67697;BME280;54486;51.442;6.778;2023-04-05T12:23:53;101961.66;;;9.86;39.84
67697;BME280;54486;51.442;6.778;2023-04-05T12:26:20;101954.00;;;9.95;40.93
67697;BME280;54486;51.442;6.778;2023-04-05T12:28:55;101957.63;;;10.05;41.14
67697;BME280;54486;51.442;6.778;2023-04-05T12:34:10;101950.91;;;10.21;39.80
67697;BME280;54486;51.442;6.778;2023-04-05T12:36:38;101946.66;;;10.29;38.48
67697;BME280;54486;51.442;6.778;2023-04-05T12:39:09;101945.84;;;10.33;38.54
67697;BME280;54486;51.442;6.778;2023-04-05T12:41:36;101945.03;;;10.37;39.41
67697;BME280;54486;51.442;6.778;2023-04-05T12:44:04;101935.47;;;10.39;37.68
67697;BME280;54486;51.442;6.778;2023-04-05T12:49:19;101929.44;;;10.43;38.56
67697;BME280;54486;51.442;6.778;2023-04-05T12:51:46;101921.63;;;10.46;38.14
67697;BME280;54486;51.442;6.778;2023-04-05T12:54:19;101927.91;;;10.61;37.96
67697;BME280;54486;51.442;6.778;2023-04-05T12:56:50;101931.25;;;10.53;38.18
67697;BME280;54486;51.442;6.778;2023-04-05T12:59:22;101928.72;;;10.57;38.76
67697;BME280;54486;51.442;6.778;2023-04-05T13:01:49;101922.91;;;10.84;40.39
67697;BME280;54486;51.442;6.778;2023-04-05T13:04:17;101914.25;;;10.91;37.88
67697;BME280;54486;51.442;6.778;2023-04-05T13:06:44;101907.47;;;11.08;39.36
67697;BME280;54486;51.442;6.778;2023-04-05T13:09:13;101907.72;;;11.39;39.23
67697;BME280;54486;51.442;6.778;2023-04-05T13:11:41;101903.63;;;11.73;38.13
67697;BME280;54486;51.442;6.778;2023-04-05T13:14:08;101902.13;;;12.18;38.60
67697;BME280;54486;51.442;6.778;2023-04-05T13:16:35;101905.66;;;12.39;35.70
67697;BME280;54486;51.442;6.778;2023-04-05T13:19:02;101889.19;;;12.73;37.44
67697;BME280;54486;51.442;6.778;2023-04-05T13:21:30;101885.72;;;13.07;36.68
67697;BME280;54486;51.442;6.778;2023-04-05T13:23:58;101882.22;;;13.45;35.01
67697;BME280;54486;51.442;6.778;2023-04-05T13:26:25;101888.25;;;13.78;33.40
67697;BME280;54486;51.442;6.778;2023-04-05T13:28:53;101871.47;;;14.23;32.10
67697;BME280;54486;51.442;6.778;2023-04-05T13:31:20;101877.50;;;14.47;31.67
67697;BME280;54486;51.442;6.778;2023-04-05T13:33:47;101872.91;;;14.82;31.17
67697;BME280;54486;51.442;6.778;2023-04-05T13:36:14;101874.44;;;15.10;31.60
67697;BME280;54486;51.442;6.778;2023-04-05T13:38:41;101858.22;;;15.59;30.37
67697;BME280;54486;51.442;6.778;2023-04-05T13:41:08;101866.22;;;16.23;29.01
67697;BME280;54486;51.442;6.778;2023-04-05T13:43:35;101862.44;;;16.40;28.02
67697;BME280;54486;51.442;6.778;2023-04-05T13:46:03;101853.00;;;16.87;29.11
67697;BME280;54486;51.442;6.778;2023-04-05T13:48:30;101852.59;;;17.11;27.87
67697;BME280;54486;51.442;6.778;2023-04-05T13:50:57;101856.97;;;17.63;28.07